createdAt,value
2019-03-27T00:00:52.420Z,102034.59
2019-03-27T00:03:23.396Z,102035.30
2019-03-27T00:05:53.889Z,102039.80
2019-03-27T00:08:24.515Z,102038.38
2019-03-27T00:10:55.107Z,102043.97
2019-03-27T00:13:25.625Z,102053.44
2019-03-27T00:15:56.665Z,102049.30
2019-03-27T00:18:27.187Z,102046.65
2019-03-27T00:20:57.742Z,102048.16
2019-03-27T00:23:28.267Z,102052.93
2019-03-27T00:25:58.892Z,102055.20
2019-03-27T00:28:29.491Z,102058.84
2019-03-27T00:31:00.032Z,102057.27
2019-03-27T00:33:30.597Z,102058.40
2019-03-27T00:36:01.087Z,102064.13
2019-03-27T00:38:31.652Z,102065.62
2019-03-27T00:41:02.225Z,102064.82
2019-03-27T00:43:32.751Z,102066.17
2019-03-27T00:46:03.305Z,102058.40
2019-03-27T00:48:33.856Z,102058.73
2019-03-27T00:51:04.336Z,102060.49
2019-03-27T00:53:34.776Z,102062.25
2019-03-27T00:56:05.529Z,102061.41
2019-03-27T00:58:36.110Z,102066.47
2019-03-27T01:01:08.885Z,102062.17
2019-03-27T01:03:39.339Z,102064.59
2019-03-27T01:06:09.970Z,102063.93
2019-03-27T01:08:40.432Z,102066.94
2019-03-27T01:11:11.008Z,102066.70
2019-03-27T01:13:41.639Z,102070.66
2019-03-27T01:16:12.125Z,102071.55
2019-03-27T01:18:42.675Z,102075.48
2019-03-27T01:21:13.220Z,102074.66
2019-03-27T01:23:43.741Z,102079.03
2019-03-27T01:26:14.284Z,102078.91
2019-03-27T01:28:44.813Z,102079.19
2019-03-27T01:31:15.387Z,102075.56
2019-03-27T01:33:47.451Z,102083.25
2019-03-27T01:36:18.104Z,102082.50
2019-03-27T01:38:48.627Z,102090.87
2019-03-27T01:41:19.217Z,102094.48
2019-03-27T01:43:49.765Z,102094.84
2019-03-27T01:46:20.460Z,102095.31
2019-03-27T01:48:51.046Z,102095.98
2019-03-27T01:51:21.665Z,102091.27
2019-03-27T01:53:52.338Z,102091.27
2019-03-27T01:56:22.966Z,102094.81
2019-03-27T01:58:53.503Z,102089.33
2019-03-27T02:01:24.052Z,102089.33
2019-03-27T02:03:54.568Z,102105.87
2019-03-27T02:06:25.204Z,102093.59
2019-03-27T02:08:55.816Z,102103.60
2019-03-27T02:11:26.372Z,102108.13
2019-03-27T02:13:56.970Z,102113.55
2019-03-27T02:16:27.589Z,102114.89
2019-03-27T02:18:58.067Z,102071.32
2019-03-27T02:21:28.605Z,102090.16
2019-03-27T02:23:59.090Z,102109.70
2019-03-27T02:26:29.842Z,102109.70
2019-03-27T02:29:00.473Z,102076.61
2019-03-27T02:31:31.114Z,102110.11
2019-03-27T02:34:01.748Z,102111.15
2019-03-27T02:36:32.362Z,102114.92
2019-03-27T02:39:03.417Z,102114.92
2019-03-27T02:41:35.043Z,102113.09
2019-03-27T02:44:06.694Z,102113.09
2019-03-27T02:46:37.191Z,102108.41
2019-03-27T02:49:07.678Z,102116.83
2019-03-27T02:51:38.440Z,102119.09
2019-03-27T02:54:09.029Z,102113.44
2019-03-27T02:56:39.587Z,102116.67
2019-03-27T02:59:10.263Z,102114.51
2019-03-27T03:01:40.904Z,102120.86
2019-03-27T03:04:11.363Z,102128.19
2019-03-27T03:06:42.000Z,102126.59
2019-03-27T03:09:13.115Z,102124.76
2019-03-27T03:11:43.675Z,102120.84
2019-03-27T03:14:14.447Z,102123.41
2019-03-27T03:16:45.186Z,102126.90
2019-03-27T03:19:15.698Z,102135.64
2019-03-27T03:21:46.212Z,102135.55
2019-03-27T03:24:16.684Z,102131.80
2019-03-27T03:26:51.006Z,102131.67
2019-03-27T03:29:19.479Z,102121.98
2019-03-27T03:31:50.065Z,102120.03
2019-03-27T03:34:20.533Z,102118.06
2019-03-27T03:36:51.330Z,102119.71
2019-03-27T03:39:21.870Z,102127.24
2019-03-27T03:41:52.511Z,102129.05
2019-03-27T03:44:23.076Z,102123.39
2019-03-27T03:47:00.113Z,102128.36
2019-03-27T03:49:25.875Z,102133.53
2019-03-27T03:51:56.602Z,102143.66
2019-03-27T03:54:27.128Z,102144.78
2019-03-27T03:56:57.683Z,102150.28
2019-03-27T03:59:29.204Z,102147.71
2019-03-27T04:02:02.861Z,102151.67
2019-03-27T04:04:33.307Z,102152.23
2019-03-27T04:07:03.871Z,102152.75
2019-03-27T04:09:34.327Z,102144.82
2019-03-27T04:12:04.844Z,102141.74
2019-03-27T04:14:35.352Z,102146.51
2019-03-27T04:17:17.167Z,102151.80
2019-03-27T04:19:39.264Z,102156.08
2019-03-27T04:22:09.854Z,102150.23
2019-03-27T04:24:40.392Z,102160.48
2019-03-27T04:27:10.844Z,102154.88
2019-03-27T04:29:41.367Z,102161.33
2019-03-27T04:32:11.849Z,102158.08
2019-03-27T04:34:46.843Z,102167.37
2019-03-27T04:37:15.637Z,102165.41
2019-03-27T04:39:46.244Z,102181.14
2019-03-27T04:42:16.732Z,102182.55
2019-03-27T04:44:47.281Z,102184.03
2019-03-27T04:47:31.447Z,102182.06
2019-03-27T04:49:51.119Z,102180.62
2019-03-27T04:52:22.780Z,102185.91
2019-03-27T04:54:53.227Z,102191.52
2019-03-27T04:57:23.715Z,102194.40
2019-03-27T04:59:54.229Z,102196.37
2019-03-27T05:02:24.846Z,102199.97
2019-03-27T05:04:55.870Z,102207.34
2019-03-27T05:07:26.430Z,102215.20
2019-03-27T05:09:56.959Z,102217.52
2019-03-27T05:12:28.451Z,102215.00
2019-03-27T05:15:00.072Z,102223.49
2019-03-27T05:17:30.704Z,102218.48
2019-03-27T05:20:01.255Z,102210.90
2019-03-27T05:22:32.882Z,102213.53
2019-03-27T05:25:03.779Z,102204.11
2019-03-27T05:27:36.488Z,102203.09
2019-03-27T05:30:07.354Z,102204.48
2019-03-27T05:32:38.198Z,102200.35
2019-03-27T05:35:09.051Z,102202.37
2019-03-27T05:37:39.665Z,102199.19
2019-03-27T05:40:10.371Z,102201.45
2019-03-27T05:42:41.024Z,102205.41
2019-03-27T05:45:11.938Z,102200.64
2019-03-27T05:47:42.747Z,102204.44
2019-03-27T05:50:13.326Z,102208.22
2019-03-27T05:52:44.062Z,102209.89
2019-03-27T05:55:15.316Z,102214.59
2019-03-27T05:57:47.842Z,102223.69
2019-03-27T06:00:19.022Z,102232.88
2019-03-27T06:02:49.750Z,102238.85
2019-03-27T06:05:20.380Z,102226.77
2019-03-27T06:07:51.124Z,102240.37
2019-03-27T06:10:22.254Z,102242.77
2019-03-27T06:12:53.123Z,102216.52
2019-03-27T06:15:23.766Z,102244.59
2019-03-27T06:17:55.019Z,102245.10
2019-03-27T06:20:25.653Z,102249.24
2019-03-27T06:22:56.221Z,102247.94
2019-03-27T06:25:28.805Z,102251.23
2019-03-27T06:28:00.076Z,102240.64
2019-03-27T06:30:30.814Z,102236.34
2019-03-27T06:33:01.288Z,102236.60
2019-03-27T06:35:31.878Z,102227.69
2019-03-27T06:38:02.457Z,102226.09
2019-03-27T06:40:33.004Z,102222.69
2019-03-27T06:43:03.561Z,102227.89
2019-03-27T06:45:34.171Z,102229.64
2019-03-27T06:48:04.714Z,102225.55
2019-03-27T06:50:35.156Z,102234.16
2019-03-27T06:53:05.723Z,102237.19
2019-03-27T06:55:36.235Z,102239.54
2019-03-27T06:58:06.847Z,102237.13
2019-03-27T07:00:38.048Z,102234.45
2019-03-27T07:03:08.650Z,102228.17
2019-03-27T07:05:39.108Z,102226.16
2019-03-27T07:08:09.660Z,102232.41
2019-03-27T07:10:40.162Z,102241.51
2019-03-27T07:13:10.711Z,102241.13
2019-03-27T07:15:41.265Z,102244.67
2019-03-27T07:18:11.746Z,102249.10
2019-03-27T07:20:42.352Z,102253.53
2019-03-27T07:23:12.900Z,102247.50
2019-03-27T07:25:43.454Z,102248.43
2019-03-27T07:28:14.008Z,102249.88
2019-03-27T07:30:44.506Z,102249.11
2019-03-27T07:33:14.966Z,102250.13
2019-03-27T07:35:45.434Z,102254.27
2019-03-27T07:38:16.034Z,102254.16
2019-03-27T07:40:46.636Z,102257.77
2019-03-27T07:43:17.225Z,102264.20
2019-03-27T07:45:47.807Z,102271.72
2019-03-27T07:48:18.340Z,102275.44
2019-03-27T07:50:48.849Z,102275.69
2019-03-27T07:53:22.294Z,102279.56
2019-03-27T07:55:51.510Z,102277.58
2019-03-27T07:58:22.060Z,102271.81
2019-03-27T08:00:52.536Z,102275.16
2019-03-27T08:03:23.060Z,102282.38
2019-03-27T08:05:53.536Z,102276.61
2019-03-27T08:08:24.165Z,102272.09
2019-03-27T08:10:54.588Z,102272.83
2019-03-27T08:13:25.069Z,102274.47
2019-03-27T08:15:55.517Z,102274.64
2019-03-27T08:18:25.974Z,102273.52
2019-03-27T08:20:56.504Z,102283.60
2019-03-27T08:23:27.064Z,102277.45
2019-03-27T08:25:57.731Z,102280.98
2019-03-27T08:28:28.190Z,102279.34
2019-03-27T08:30:58.762Z,102287.66
2019-03-27T08:33:29.303Z,102283.61
2019-03-27T08:35:59.721Z,102279.83
2019-03-27T08:38:31.294Z,102282.19
2019-03-27T08:41:01.817Z,102286.55
2019-03-27T08:43:32.326Z,102285.59
2019-03-27T08:46:02.835Z,102282.12
2019-03-27T08:48:33.300Z,102291.88
2019-03-27T08:51:03.751Z,102291.02
2019-03-27T08:53:34.308Z,102288.77
2019-03-27T08:56:04.803Z,102284.43
2019-03-27T08:58:35.326Z,102281.02
2019-03-27T09:01:05.812Z,102274.20
2019-03-27T09:03:36.342Z,102278.27
2019-03-27T09:06:06.858Z,102286.66
2019-03-27T09:08:37.380Z,102285.13
2019-03-27T09:11:07.822Z,102277.60
2019-03-27T09:13:38.351Z,102285.62
2019-03-27T09:16:08.882Z,102286.31
2019-03-27T09:18:39.422Z,102295.22
2019-03-27T09:21:09.866Z,102289.31
2019-03-27T09:23:40.385Z,102288.72
2019-03-27T09:26:10.987Z,102282.41
2019-03-27T09:28:41.582Z,102281.95
2019-03-27T09:31:12.213Z,102278.58
2019-03-27T09:33:42.750Z,102289.12
2019-03-27T09:36:13.191Z,102285.40
2019-03-27T09:38:43.720Z,102282.80
2019-03-27T09:41:14.229Z,102278.70
2019-03-27T09:43:45.842Z,102274.78
2019-03-27T09:46:16.439Z,102276.89
2019-03-27T09:48:46.967Z,102269.69
2019-03-27T09:51:17.382Z,102268.22
2019-03-27T09:53:48.050Z,102269.83
2019-03-27T09:56:19.798Z,102265.02
2019-03-27T09:58:50.308Z,102266.59
2019-03-27T10:01:20.813Z,102265.92
2019-03-27T10:03:52.329Z,102270.05
2019-03-27T10:06:22.788Z,102263.24
2019-03-27T10:08:53.361Z,102259.44
2019-03-27T10:11:24.025Z,102265.34
2019-03-27T10:13:54.551Z,102263.02
2019-03-27T10:16:25.090Z,102256.20
2019-03-27T10:18:55.663Z,102257.22
2019-03-27T10:21:26.161Z,102258.91
2019-03-27T10:24:06.348Z,102247.94
2019-03-27T10:27:06.725Z,102258.98
2019-03-27T10:29:41.925Z,102257.80
2019-03-27T10:32:12.503Z,102256.70
2019-03-27T10:34:43.159Z,102256.87
2019-03-27T10:37:14.404Z,102256.11
2019-03-27T10:39:46.128Z,102252.52
2019-03-27T10:42:16.859Z,102245.25
2019-03-27T10:44:47.350Z,102248.11
2019-03-27T10:47:18.098Z,102254.33
2019-03-27T10:49:48.646Z,102254.47
2019-03-27T10:52:19.249Z,102253.27
2019-03-27T10:54:49.796Z,102257.78
2019-03-27T10:57:20.471Z,102248.98
2019-03-27T10:59:51.121Z,102262.23
2019-03-27T11:02:21.689Z,102262.15
2019-03-27T11:04:52.262Z,102258.13
2019-03-27T11:07:22.748Z,102264.51
2019-03-27T11:09:53.369Z,102260.09
2019-03-27T11:12:24.062Z,102250.84
2019-03-27T11:14:54.591Z,102253.97
2019-03-27T11:17:25.452Z,102248.00
2019-03-27T11:19:55.944Z,102255.11
2019-03-27T11:22:26.573Z,102253.05
2019-03-27T11:24:57.567Z,102252.64
2019-03-27T11:27:28.119Z,102264.97
2019-03-27T11:29:58.681Z,102254.47
2019-03-27T11:32:29.493Z,102249.66
2019-03-27T11:34:59.976Z,102246.59
2019-03-27T11:41:34.576Z,102229.52
2019-03-27T11:47:53.634Z,102246.59
2019-03-27T11:50:27.121Z,102240.47
2019-03-27T11:52:57.517Z,102237.60
2019-03-27T11:55:27.987Z,102240.01
2019-03-27T11:57:58.444Z,102255.17
2019-03-27T12:00:28.970Z,102239.41
2019-03-27T12:02:59.615Z,102240.22
2019-03-27T12:05:30.323Z,102247.08
2019-03-27T12:08:00.906Z,102247.33
2019-03-27T12:10:31.568Z,102247.63
2019-03-27T12:13:02.154Z,102244.23
2019-03-27T12:15:40.823Z,102246.69
2019-03-27T12:18:16.420Z,102250.84
2019-03-27T12:21:06.267Z,102251.25
2019-03-27T12:24:00.922Z,102249.34
2019-03-27T12:26:58.022Z,102250.19
2019-03-27T12:29:55.591Z,102245.39
2019-03-27T12:32:42.693Z,102248.45
2019-03-27T12:35:33.439Z,102246.30
2019-03-27T12:38:09.074Z,102258.09
2019-03-27T12:40:41.474Z,102258.42
2019-03-27T12:43:16.078Z,102260.70
2019-03-27T12:45:48.448Z,102274.62
2019-03-27T12:48:18.952Z,102265.61
2019-03-27T12:50:49.484Z,102265.63
2019-03-27T12:53:20.091Z,102259.39
2019-03-27T12:56:19.696Z,102257.88
2019-03-27T13:02:30.796Z,102265.32
2019-03-27T13:05:02.866Z,102272.85
2019-03-27T13:07:34.472Z,102259.52
2019-03-27T13:10:23.877Z,102260.54
2019-03-27T13:12:55.824Z,102259.69
2019-03-27T13:15:26.820Z,102260.58
2019-03-27T13:17:57.421Z,102258.78
2019-03-27T13:20:27.963Z,102253.59
2019-03-27T13:22:58.465Z,102247.90
2019-03-27T13:25:29.003Z,102243.29
2019-03-27T13:27:59.544Z,102254.59
2019-03-27T13:30:29.981Z,102253.16
2019-03-27T13:33:00.790Z,102259.50
2019-03-27T13:35:31.345Z,102252.38
2019-03-27T13:38:01.969Z,102250.30
2019-03-27T13:40:32.474Z,102249.58
2019-03-27T13:43:02.889Z,102253.03
2019-03-27T13:45:33.414Z,102249.09
2019-03-27T13:48:04.010Z,102253.25
2019-03-27T13:50:34.530Z,102254.86
2019-03-27T13:53:05.065Z,102247.02
2019-03-27T13:55:35.718Z,102246.14
2019-03-27T13:58:06.391Z,102250.97
2019-03-27T14:00:36.909Z,102247.33
2019-03-27T14:03:07.411Z,102252.85
2019-03-27T14:05:38.081Z,102247.93
2019-03-27T14:08:08.521Z,102247.87
2019-03-27T14:10:39.058Z,102251.67
2019-03-27T14:13:09.551Z,102260.50
2019-03-27T14:15:40.217Z,102257.27
2019-03-27T14:18:10.666Z,102266.04
2019-03-27T14:20:41.359Z,102258.47
2019-03-27T14:23:11.862Z,102250.86
2019-03-27T14:25:42.368Z,102253.14
2019-03-27T14:28:17.472Z,102257.73
2019-03-27T14:30:55.564Z,102250.11
2019-03-27T14:33:26.026Z,102246.61
2019-03-27T14:35:56.544Z,102249.94
2019-03-27T14:38:27.114Z,102251.33
2019-03-27T14:40:57.646Z,102259.70
2019-03-27T14:43:28.163Z,102256.55
2019-03-27T14:46:15.604Z,102262.23
2019-03-27T14:49:12.314Z,102258.97
2019-03-27T14:52:08.151Z,102256.41
2019-03-27T14:54:43.617Z,102255.55
2019-03-27T14:57:16.336Z,102249.77
2019-03-27T14:59:53.766Z,102254.06
2019-03-27T15:02:37.665Z,102251.05
2019-03-27T15:05:31.033Z,102254.59
2019-03-27T15:08:10.663Z,102252.38
2019-03-27T15:10:43.615Z,102253.52
2019-03-27T15:13:15.403Z,102259.59
2019-03-27T15:15:46.083Z,102261.73
2019-03-27T15:18:16.535Z,102256.63
2019-03-27T15:20:47.085Z,102253.06
2019-03-27T15:23:17.540Z,102253.83
2019-03-27T15:25:47.987Z,102255.53
2019-03-27T15:28:18.935Z,102255.11
2019-03-27T15:30:49.448Z,102247.02
2019-03-27T15:33:22.804Z,102254.40
2019-03-27T15:35:53.318Z,102254.73
2019-03-27T15:38:23.831Z,102245.95
2019-03-27T15:40:54.271Z,102254.16
2019-03-27T15:43:24.791Z,102249.11
2019-03-27T15:45:55.328Z,102249.54
2019-03-27T15:48:26.157Z,102245.89
2019-03-27T15:50:58.907Z,102243.45
2019-03-27T15:53:28.891Z,102238.45
2019-03-27T15:55:59.490Z,102240.52
2019-03-27T15:58:29.930Z,102236.93
2019-03-27T16:01:00.383Z,102234.59
2019-03-27T16:03:30.972Z,102237.12
2019-03-27T16:06:01.417Z,102226.23
2019-03-27T16:08:31.876Z,102225.94
2019-03-27T16:11:02.380Z,102224.93
2019-03-27T16:13:32.862Z,102226.63
2019-03-27T16:16:03.394Z,102233.28
2019-03-27T16:18:34.012Z,102233.89
2019-03-27T16:21:05.478Z,102233.11
2019-03-27T16:23:37.038Z,102225.75
2019-03-27T16:26:07.695Z,102225.27
2019-03-27T16:28:38.239Z,102225.17
2019-03-27T16:31:08.743Z,102224.62
2019-03-27T16:33:39.379Z,102221.41
2019-03-27T16:36:09.977Z,102223.84
2019-03-27T16:38:40.633Z,102214.88
2019-03-27T16:41:11.072Z,102224.92
2019-03-27T16:43:44.205Z,102221.55
2019-03-27T16:46:14.041Z,102217.39
2019-03-27T16:48:45.280Z,102219.23
2019-03-27T16:51:15.719Z,102219.63
2019-03-27T16:53:47.867Z,102227.45
2019-03-27T16:56:18.357Z,102225.41
2019-03-27T16:58:48.894Z,102227.41
2019-03-27T17:01:19.942Z,102232.43
2019-03-27T17:03:50.642Z,102221.42
2019-03-27T17:06:21.706Z,102224.03
2019-03-27T17:08:52.328Z,102230.58
2019-03-27T17:11:22.903Z,102233.67
2019-03-27T17:13:53.618Z,102230.77
2019-03-27T17:16:24.386Z,102231.50
2019-03-27T17:18:55.354Z,102234.30
2019-03-27T17:21:26.057Z,102239.43
2019-03-27T17:23:56.851Z,102237.83
2019-03-27T17:26:27.644Z,102236.82
2019-03-27T17:28:58.261Z,102235.61
2019-03-27T17:31:29.008Z,102235.31
2019-03-27T17:33:59.747Z,102239.42
2019-03-27T17:36:30.507Z,102246.34
2019-03-27T17:39:01.282Z,102243.24
2019-03-27T17:41:33.743Z,102244.31
2019-03-27T17:44:26.710Z,102252.96
2019-03-27T17:47:07.329Z,102247.16
2019-03-27T17:49:46.080Z,102245.75
2019-03-27T17:52:18.469Z,102250.06
2019-03-27T17:54:49.324Z,102252.97
2019-03-27T17:57:20.202Z,102256.39
2019-03-27T17:59:51.282Z,102258.91
2019-03-27T18:02:21.775Z,102257.08
2019-03-27T18:04:52.271Z,102255.09
2019-03-27T18:07:23.353Z,102255.91
2019-03-27T18:09:54.055Z,102261.03
2019-03-27T18:12:24.734Z,102257.52
2019-03-27T18:14:56.764Z,102264.23
2019-03-27T18:17:27.264Z,102259.92
2019-03-27T18:19:58.401Z,102264.33
2019-03-27T18:22:29.314Z,102264.63
2019-03-27T18:25:00.595Z,102260.84
2019-03-27T18:27:31.440Z,102261.33
2019-03-27T18:30:02.183Z,102263.22
2019-03-27T18:32:34.553Z,102270.36
2019-03-27T18:35:06.771Z,102264.75
2019-03-27T18:37:38.467Z,102265.63
2019-03-27T18:40:09.478Z,102267.03
2019-03-27T18:42:40.825Z,102273.98
2019-03-27T18:45:11.718Z,102270.85
2019-03-27T18:47:42.309Z,102278.39
2019-03-27T18:50:12.938Z,102275.88
2019-03-27T18:52:43.970Z,102278.19
2019-03-27T18:55:25.758Z,102278.88
2019-03-27T18:57:59.494Z,102278.09
2019-03-27T19:00:18.939Z,102276.27
2019-03-27T19:02:49.472Z,102279.50
2019-03-27T19:05:20.087Z,102278.68
2019-03-27T19:07:50.542Z,102282.89
2019-03-27T19:10:21.047Z,102285.50
2019-03-27T19:12:51.564Z,102285.11
2019-03-27T19:15:22.102Z,102284.61
2019-03-27T19:18:07.388Z,102292.64
2019-03-27T19:20:38.732Z,102284.91
2019-03-27T19:23:10.701Z,102289.33
2019-03-27T19:25:41.523Z,102287.91
2019-03-27T19:28:12.018Z,102292.92
2019-03-27T19:30:42.588Z,102287.02
2019-03-27T19:33:13.088Z,102290.02
2019-03-27T19:35:43.566Z,102277.80
2019-03-27T19:38:14.120Z,102284.99
2019-03-27T19:40:44.703Z,102286.31
2019-03-27T19:43:15.123Z,102281.28
2019-03-27T19:45:46.738Z,102282.48
2019-03-27T19:48:17.501Z,102279.20
2019-03-27T19:50:48.320Z,102289.72
2019-03-27T19:53:18.944Z,102275.75
2019-03-27T19:55:49.429Z,102280.09
2019-03-27T19:58:19.912Z,102285.16
2019-03-27T20:00:50.595Z,102279.75
2019-03-27T20:03:21.090Z,102280.07
2019-03-27T20:05:51.557Z,102279.23
2019-03-27T20:08:22.432Z,102282.05
2019-03-27T20:13:47.500Z,102285.73
2019-03-27T20:16:18.158Z,102284.58
2019-03-27T20:18:53.821Z,102277.98
2019-03-27T20:21:24.363Z,102276.16
2019-03-27T20:23:55.006Z,102278.88
2019-03-27T20:26:25.618Z,102275.25
2019-03-27T20:28:56.199Z,102275.05
2019-03-27T20:31:26.691Z,102273.74
2019-03-27T20:33:57.230Z,102278.03
2019-03-27T20:36:27.784Z,102271.39
2019-03-27T20:38:58.244Z,102272.97
2019-03-27T20:41:28.788Z,102258.05
2019-03-27T20:43:59.318Z,102271.17
2019-03-27T20:46:29.877Z,102268.96
2019-03-27T20:49:00.399Z,102272.58
2019-03-27T20:51:30.953Z,102270.89
2019-03-27T20:54:01.704Z,102271.28
2019-03-27T20:56:32.251Z,102275.81
2019-03-27T20:59:02.852Z,102267.48
2019-03-27T21:01:33.421Z,102266.46
2019-03-27T21:04:04.013Z,102265.78
2019-03-27T21:06:35.403Z,102271.84
2019-03-27T21:09:06.326Z,102271.55
2019-03-27T21:11:37.218Z,102275.66
2019-03-27T21:14:07.734Z,102271.38
2019-03-27T21:16:38.211Z,102265.75
2019-03-27T21:19:08.742Z,102265.62
2019-03-27T21:21:41.794Z,102263.76
2019-03-27T21:24:12.453Z,102269.85
2019-03-27T21:26:44.730Z,102264.44
2019-03-27T21:29:17.795Z,102269.56
2019-03-27T21:31:48.526Z,102268.23
2019-03-27T21:34:20.365Z,102266.67
2019-03-27T21:36:50.989Z,102263.78
2019-03-27T21:39:21.512Z,102269.66
2019-03-27T21:41:52.139Z,102264.06
2019-03-27T21:44:22.743Z,102264.06
2019-03-27T21:46:56.185Z,102264.37
2019-03-27T21:49:26.652Z,102260.08
2019-03-27T21:51:57.202Z,102264.30
2019-03-27T21:54:27.724Z,102270.89
2019-03-27T21:56:58.296Z,102267.69
2019-03-27T21:59:31.828Z,102262.58
2019-03-27T22:02:02.381Z,102268.99
2019-03-27T22:04:32.931Z,102263.98
2019-03-27T22:07:03.648Z,102272.01
2019-03-27T22:09:34.196Z,102262.78
2019-03-27T22:12:04.759Z,102267.58
2019-03-27T22:14:35.222Z,102269.89
2019-03-27T22:17:05.775Z,102267.58
2019-03-27T22:19:36.399Z,102266.51
2019-03-27T22:22:07.031Z,102271.92
2019-03-27T22:24:37.623Z,102269.12
2019-03-27T22:27:08.199Z,102266.00
2019-03-27T22:29:38.650Z,102263.98
2019-03-27T22:32:09.206Z,102255.48
2019-03-27T22:34:39.715Z,102265.92
2019-03-27T22:37:10.266Z,102263.70
2019-03-27T22:39:40.795Z,102259.22
2019-03-27T22:42:11.287Z,102264.61
2019-03-27T22:44:41.802Z,102261.82
2019-03-27T22:47:12.342Z,102270.03
2019-03-27T22:49:43.019Z,102267.42
2019-03-27T22:52:13.553Z,102272.33
2019-03-27T22:54:44.111Z,102273.55
2019-03-27T22:57:14.734Z,102272.25
2019-03-27T22:59:45.260Z,102278.77
2019-03-27T23:02:15.866Z,102276.94
2019-03-27T23:04:46.385Z,102281.58
2019-03-27T23:07:16.887Z,102277.85
2019-03-27T23:09:47.587Z,102278.44
2019-03-27T23:12:18.117Z,102280.56
2019-03-27T23:14:48.570Z,102275.63
2019-03-27T23:17:19.073Z,102275.63
2019-03-27T23:19:51.283Z,102282.58
2019-03-27T23:22:22.074Z,102279.25
2019-03-27T23:24:52.594Z,102276.55
2019-03-27T23:27:23.129Z,102279.95
2019-03-27T23:29:53.643Z,102279.66
2019-03-27T23:32:24.214Z,102275.55
2019-03-27T23:34:54.744Z,102273.14
2019-03-27T23:37:25.276Z,102271.92
2019-03-27T23:39:55.799Z,102274.13
2019-03-27T23:42:26.388Z,102273.35
2019-03-27T23:44:57.038Z,102269.20
2019-03-27T23:47:27.593Z,102267.90
2019-03-27T23:49:58.109Z,102279.84
2019-03-27T23:52:28.590Z,102270.30
2019-03-27T23:54:59.110Z,102272.42
2019-03-27T23:57:29.730Z,102269.63
